Time;durP1;ratioP1;P1;durP2;ratioP2;P2;SDS_P1;SDS_P2;PMS_P1;PMS_P2;Temp;Humidity;BMP_temperature;BMP_pressure;BME280_temperature;BME280_humidity;BME280_pressure;Samples;Min_cycle;Max_cycle;Signal;HPM_P1;HPM_P2
2023/12/02 00:01:13;;;;;;;12.25;6.57;;;;;;;-1.16;80.26;96379.22;6270564;28;20053;-75
2023/12/02 00:04:19;;;;;;;13.02;7.05;;;;;;;-1.29;80.56;96386.44;6270417;28;20513;-74
2023/12/02 00:07:21;;;;;;;9.20;4.75;;;;;;;-1.14;80.44;96374.88;6251860;28;20051;-74
2023/12/02 00:10:26;;;;;;;11.23;6.53;;;;;;;-1.24;80.37;96356.22;6270307;28;20052;-74
2023/12/02 00:13:35;;;;;;;12.15;7.32;;;;;;;-1.42;80.80;96344.63;6269331;28;20048;-75
2023/12/02 00:16:41;;;;;;;15.27;7.30;;;;;;;-1.28;80.79;96352.00;6270205;28;20049;-75
2023/12/02 00:19:45;;;;;;;14.52;7.45;;;;;;;-1.41;81.29;96343.75;6252701;28;20509;-75
2023/12/02 00:22:48;;;;;;;12.73;7.60;;;;;;;-1.34;80.58;96338.41;6268932;28;20091;-75
2023/12/02 00:25:50;;;;;;;11.93;5.50;;;;;;;-1.37;81.03;96322.13;6269966;28;20054;-75
2023/12/02 00:28:54;;;;;;;11.45;6.00;;;;;;;-1.29;81.12;96337.41;6269948;28;20032;-73
2023/12/02 00:31:58;;;;;;;17.98;8.05;;;;;;;-1.43;80.77;96345.50;6269926;28;20453;-75
2023/12/02 00:35:05;;;;;;;16.20;8.88;;;;;;;-1.39;81.92;96336.81;6269561;28;20052;-74
2023/12/02 00:38:07;;;;;;;13.07;6.93;;;;;;;-1.33;81.52;96332.34;6269778;28;20422;-75
2023/12/02 00:41:11;;;;;;;8.35;4.55;;;;;;;-1.37;81.66;96340.19;6268931;28;20060;-74
2023/12/02 00:44:15;;;;;;;14.35;7.78;;;;;;;-1.24;80.67;96339.88;6269212;28;20414;-75
2023/12/02 00:47:17;;;;;;;14.70;7.35;;;;;;;-1.20;80.88;96334.56;6251452;28;20048;-75
2023/12/02 00:50:18;;;;;;;11.85;6.43;;;;;;;-1.22;81.06;96338.09;6269225;28;20425;-75
2023/12/02 00:53:22;;;;;;;10.77;5.57;;;;;;;-1.29;80.97;96328.81;6275853;28;20044;-73
2023/12/02 00:56:31;;;;;;;14.38;6.32;;;;;;;-1.21;80.82;96316.56;6294333;28;20514;-75
2023/12/02 00:59:35;;;;;;;14.35;7.57;;;;;;;-1.37;81.50;96313.53;6294179;28;20051;-75
2023/12/02 01:02:38;;;;;;;;;;;;;;;-1.34;81.24;96310.03;6294507;28;20505;-74
2023/12/02 01:05:46;;;;;;;14.00;7.05;;;;;;;-1.32;82.02;96303.94;6294186;28;20413;-74
2023/12/02 01:08:47;;;;;;;13.60;8.13;;;;;;;-1.34;82.53;96307.44;6292075;28;20053;-74
2023/12/02 01:11:51;;;;;;;20.77;11.25;;;;;;;-1.22;82.00;96312.28;6291274;28;20060;-75
2023/12/02 01:15:00;;;;;;;18.20;9.48;;;;;;;-1.24;81.57;96308.91;6292877;28;20040;-74
2023/12/02 01:18:01;;;;;;;17.80;9.68;;;;;;;-1.27;81.69;96307.25;6293465;28;20126;-74
2023/12/02 01:21:03;;;;;;;18.38;9.38;;;;;;;-1.21;81.13;96298.50;6293206;28;20053;-74
2023/12/02 01:24:05;;;;;;;17.45;8.25;;;;;;;-1.32;81.58;96297.94;6292180;28;20053;-74
2023/12/02 01:27:12;;;;;;;15.75;8.07;;;;;;;-1.37;81.74;96288.56;6298572;28;20045;-75
2023/12/02 01:30:13;;;;;;;15.45;8.95;;;;;;;-1.37;82.52;96278.25;6298438;28;20417;-76
2023/12/02 01:33:21;;;;;;;17.17;8.55;;;;;;;-1.37;82.39;96272.25;6298722;28;20417;-75
2023/12/02 01:36:29;;;;;;;14.55;8.52;;;;;;;-1.28;82.58;96256.50;6298859;28;20125;-75
2023/12/02 01:39:34;;;;;;;15.02;7.70;;;;;;;-1.19;82.71;96256.25;6298394;28;20056;-74
2023/12/02 01:42:38;;;;;;;13.93;8.00;;;;;;;-1.31;82.25;96246.25;6298448;28;20052;-74
2023/12/02 01:45:43;;;;;;;14.48;9.13;;;;;;;-1.38;82.40;96250.75;6298483;28;20155;-75
2023/12/02 01:48:45;;;;;;;16.98;9.07;;;;;;;-1.38;82.20;96249.91;6298385;28;20032;-75
2023/12/02 01:51:51;;;;;;;15.75;8.95;;;;;;;-1.39;83.26;96233.59;6294591;28;20049;-74
2023/12/02 01:54:56;;;;;;;18.88;9.98;;;;;;;-1.34;82.64;96219.69;6273370;28;20528;-76
2023/12/02 01:57:58;;;;;;;15.35;8.68;;;;;;;-1.32;83.16;96217.94;6272828;28;20046;-74
2023/12/02 02:01:03;;;;;;;11.43;6.60;;;;;;;-1.34;82.99;96219.69;6272213;28;20324;-74
2023/12/02 02:04:05;;;;;;;18.17;9.55;;;;;;;-1.34;83.59;96201.63;6272250;28;20549;-75
2023/12/02 02:07:09;;;;;;;12.43;7.25;;;;;;;-1.32;82.52;96192.13;6272751;28;20041;-75
2023/12/02 02:10:19;;;;;;;20.75;11.38;;;;;;;-1.26;82.76;96181.63;6273150;28;20041;-75
2023/12/02 02:13:21;;;;;;;19.73;9.82;;;;;;;-1.37;83.14;96194.81;6272700;28;20514;-74
2023/12/02 02:16:26;;;;;;;13.93;7.30;;;;;;;-1.32;82.53;96179.22;6273066;28;20040;-74
2023/12/02 02:19:31;;;;;;;19.08;9.52;;;;;;;-1.24;82.79;96179.84;6255474;28;20506;-75
2023/12/02 02:22:35;;;;;;;17.08;9.02;;;;;;;-1.57;82.58;96146.38;6254549;28;20041;-74
2023/12/02 02:25:36;;;;;;;17.83;8.57;;;;;;;-1.39;82.02;96163.91;6254041;28;20049;-75
2023/12/02 02:28:38;;;;;;;16.05;9.23;;;;;;;-1.41;82.97;96163.13;6271301;28;20060;-74
2023/12/02 02:31:44;;;;;;;18.08;8.77;;;;;;;-1.41;83.01;96163.13;6272586;28;20461;-75
2023/12/02 02:34:47;;;;;;;9.23;5.55;;;;;;;-1.38;82.99;96147.53;6254392;28;20176;-74
2023/12/02 02:37:50;;;;;;;15.48;8.13;;;;;;;-1.33;83.01;96156.88;6271449;28;20510;-74
2023/12/02 02:40:54;;;;;;;12.40;6.75;;;;;;;-1.37;82.87;96146.63;6272509;28;20048;-75
2023/12/02 02:44:01;;;;;;;15.68;8.20;;;;;;;-1.28;82.92;96152.41;6272321;28;20045;-75
2023/12/02 02:47:08;;;;;;;14.52;7.85;;;;;;;-1.30;83.10;96142.16;6254247;28;20048;-74
2023/12/02 02:50:15;;;;;;;17.20;7.90;;;;;;;-1.16;82.64;96141.72;6271581;28;20053;-74
2023/12/02 02:53:19;;;;;;;15.27;8.40;;;;;;;-1.27;82.33;96142.06;6271978;28;20191;-74
2023/12/02 02:56:21;;;;;;;9.43;5.00;;;;;;;-1.24;82.87;96143.72;6272313;28;20056;-75
2023/12/02 02:59:26;;;;;;;14.82;7.28;;;;;;;-1.06;82.33;96145.72;6254800;28;20155;-74
2023/12/02 03:02:30;;;;;;;13.23;7.15;;;;;;;-1.18;81.93;96118.53;6271760;28;20044;-76
2023/12/02 03:05:35;;;;;;;14.35;7.38;;;;;;;-1.11;81.33;96113.19;6271466;28;20052;-75
2023/12/02 03:08:41;;;;;;;14.82;7.85;;;;;;;-1.14;81.88;96103.78;6270965;28;20417;-75
2023/12/02 03:11:50;;;;;;;11.82;6.45;;;;;;;-1.23;81.72;96101.50;6271551;28;20498;-75
2023/12/02 03:14:58;;;;;;;13.73;7.45;;;;;;;-1.15;81.82;96086.63;6271582;28;20506;-75
2023/12/02 03:18:02;;;;;;;15.10;8.13;;;;;;;-1.28;82.01;96103.38;6271477;28;20036;-74
2023/12/02 03:21:06;;;;;;;11.90;6.97;;;;;;;-1.08;81.28;96113.94;6271572;28;20049;-74
2023/12/02 03:24:08;;;;;;;15.50;7.55;;;;;;;-1.24;81.90;96108.41;6253203;28;20049;-76
2023/12/02 03:27:14;;;;;;;16.05;8.57;;;;;;;-1.24;81.75;96097.25;6271061;28;20053;-75
2023/12/02 03:30:15;;;;;;;14.43;7.03;;;;;;;-1.19;82.20;96106.53;6270681;28;20056;-74
2023/12/02 03:33:19;;;;;;;18.55;8.13;;;;;;;-1.28;82.65;96096.47;6270813;28;20045;-75
2023/12/02 03:36:20;;;;;;;17.27;8.02;;;;;;;-1.27;82.65;96097.34;6270087;28;20049;-75
2023/12/02 03:39:23;;;;;;;19.40;7.90;;;;;;;-1.13;81.72;96090.03;6252766;28;20060;-75
2023/12/02 03:42:29;;;;;;;15.85;7.63;;;;;;;-0.98;81.42;96076.59;6270855;28;20045;-75
2023/12/02 03:45:31;;;;;;;16.20;7.60;;;;;;;-0.98;81.04;96076.59;6270368;28;20064;-75
2023/12/02 03:48:32;;;;;;;17.58;7.20;;;;;;;-1.15;81.34;96076.31;6269809;28;20044;-74
2023/12/02 03:51:39;;;;;;;15.93;7.30;;;;;;;-1.00;80.96;96059.47;6255068;28;20041;-76
2023/12/02 03:54:43;;;;;;;14.57;7.88;;;;;;;-1.07;81.32;96053.66;6295563;28;20041;-75
2023/12/02 03:57:46;;;;;;;14.70;7.70;;;;;;;-1.09;81.55;96046.88;6295044;28;20090;-75
2023/12/02 04:00:47;;;;;;;15.48;7.38;;;;;;;-1.15;81.68;96047.91;6294076;28;20498;-74
2023/12/02 04:03:49;;;;;;;7.70;5.00;;;;;;;-1.00;81.34;96039.66;6295086;28;20048;-75
2023/12/02 04:06:51;;;;;;;18.70;7.45;;;;;;;-1.11;81.38;96031.41;6294581;28;20063;-75
2023/12/02 04:09:53;;;;;;;12.75;6.18;;;;;;;-1.19;82.44;96017.91;6294873;28;20557;-75
2023/12/02 04:12:57;;;;;;;10.90;6.22;;;;;;;-1.26;82.83;96022.44;6295095;28;20093;-75
2023/12/02 04:16:04;;;;;;;13.80;7.65;;;;;;;-1.17;82.99;96016.13;6294673;28;20036;-75
2023/12/02 04:19:09;;;;;;;8.63;4.32;;;;;;;-1.14;83.25;96016.03;6294906;28;20400;-76
2023/12/02 04:22:14;;;;;;;8.77;5.28;;;;;;;-1.00;83.09;96003.50;6295166;28;20472;-75
2023/12/02 04:25:19;;;;;;;12.02;6.47;;;;;;;-0.99;82.74;96000.03;6292993;28;20052;-75
2023/12/02 04:28:26;;;;;;;14.68;7.38;;;;;;;-0.91;82.45;95997.19;6294169;28;20052;-75
2023/12/02 04:31:27;;;;;;;10.95;6.07;;;;;;;-0.96;82.57;95997.38;6294122;28;20048;-76
2023/12/02 04:34:34;;;;;;;11.00;5.38;;;;;;;-0.83;82.53;95994.34;6294508;28;20044;-76
2023/12/02 04:37:38;;;;;;;9.30;5.40;;;;;;;-0.97;82.70;95992.22;6294442;28;20047;-75
2023/12/02 04:40:46;;;;;;;7.85;4.75;;;;;;;-1.08;83.11;95978.84;6294563;28;20048;-75
2023/12/02 04:43:53;;;;;;;8.30;4.82;;;;;;;-1.01;82.42;95975.16;6294321;28;20497;-75
2023/12/02 04:46:57;;;;;;;9.63;4.88;;;;;;;-0.97;83.11;95972.41;6293567;28;20532;-76
2023/12/02 04:49:58;;;;;;;;;;;;;;;-0.80;82.17;95965.84;6294190;28;20044;-75
2023/12/02 04:53:00;;;;;;;3.88;2.80;;;;;;;-0.94;82.39;95951.66;6282022;28;20356;-75
2023/12/02 04:56:02;;;;;;;8.63;4.82;;;;;;;-0.87;82.08;95959.22;6268850;28;20052;-76
2023/12/02 04:59:04;;;;;;;10.70;5.97;;;;;;;-0.85;82.60;95945.34;6268647;28;20167;-77
2023/12/02 05:02:08;;;;;;;10.90;5.43;;;;;;;-0.91;82.68;95930.91;6268177;28;20057;-76
2023/12/02 05:05:10;;;;;;;9.98;5.50;;;;;;;-0.71;82.47;95906.09;6268702;28;20044;-76
2023/12/02 05:08:13;;;;;;;7.70;3.30;;;;;;;-0.71;82.73;95880.25;6268502;28;20475;-76
2023/12/02 05:11:21;;;;;;;8.00;4.25;;;;;;;-0.60;82.51;95878.13;6268755;28;20055;-76
2023/12/02 05:14:26;;;;;;;9.23;4.70;;;;;;;-0.69;82.86;95868.13;6269367;28;20037;-75
2023/12/02 05:17:33;;;;;;;9.32;5.43;;;;;;;-0.55;81.50;95855.56;6269141;28;20048;-76
2023/12/02 05:20:37;;;;;;;5.63;3.80;;;;;;;-0.58;82.14;95840.16;6269014;28;20048;-76
2023/12/02 05:23:42;;;;;;;6.28;3.60;;;;;;;-0.42;81.02;95826.69;6268912;28;20041;-76
2023/12/02 05:26:43;;;;;;;6.10;2.17;;;;;;;-0.55;81.58;95824.53;6250642;28;20526;-76
2023/12/02 05:29:48;;;;;;;3.70;2.40;;;;;;;-0.56;82.01;95827.19;6268342;28;20053;-76
2023/12/02 05:32:51;;;;;;;3.80;2.63;;;;;;;-0.62;81.88;95817.06;6268579;28;20041;-75
2023/12/02 05:35:53;;;;;;;3.50;2.33;;;;;;;-0.33;81.63;95813.41;6268296;28;20052;-75
2023/12/02 05:38:59;;;;;;;5.30;2.85;;;;;;;-0.31;81.57;95791.75;6268874;28;20045;-75
2023/12/02 05:42:06;;;;;;;4.30;2.88;;;;;;;-0.39;81.61;95805.88;6268726;28;20417;-75
2023/12/02 05:45:11;;;;;;;4.10;2.67;;;;;;;-0.40;82.02;95801.59;6268754;28;20127;-75
2023/12/02 05:48:14;;;;;;;3.13;1.63;;;;;;;-0.18;81.49;95806.78;6268649;28;20057;-75
2023/12/02 05:51:18;;;;;;;3.33;1.77;;;;;;;-0.29;82.00;95778.75;6268800;28;20041;-75
2023/12/02 05:54:21;;;;;;;3.00;2.20;;;;;;;-0.27;81.74;95774.38;6268497;28;20056;-75
2023/12/02 05:57:22;;;;;;;4.50;2.58;;;;;;;-0.16;80.77;95771.38;6267572;28;20045;-75
2023/12/02 06:00:24;;;;;;;3.78;2.20;;;;;;;-0.23;81.26;95768.16;6268399;28;20049;-75
2023/12/02 06:03:28;;;;;;;2.95;1.58;;;;;;;-0.28;82.03;95754.59;6267319;28;20041;-74
2023/12/02 06:06:30;;;;;;;;;;;;;;;-0.09;81.40;95750.34;6268067;28;20064;-74
2023/12/02 06:09:31;;;;;;;3.78;2.40;;;;;;;-0.22;81.45;95759.53;6250330;28;20014;-76
2023/12/02 06:12:37;;;;;;;3.13;2.03;;;;;;;-0.08;81.25;95746.03;6270023;28;20033;-76
2023/12/02 06:15:45;;;;;;;3.15;2.30;;;;;;;-0.15;81.46;95745.44;6271794;28;20134;-76
2023/12/02 06:18:49;;;;;;;2.58;1.90;;;;;;;-0.13;80.86;95743.63;6272917;28;20037;-75
2023/12/02 06:21:53;;;;;;;2.67;2.00;;;;;;;-0.14;81.66;95751.44;6272995;28;20048;-74
2023/12/02 06:24:56;;;;;;;3.38;1.90;;;;;;;-0.07;81.36;95748.56;6271995;28;20488;-75
2023/12/02 06:28:00;;;;;;;1.92;1.67;;;;;;;-0.06;81.54;95739.91;6271657;28;20053;-74
2023/12/02 06:31:11;;;;;;;1.77;1.30;;;;;;;-0.09;81.44;95701.22;6271513;28;20541;-74
2023/12/02 06:34:18;;;;;;;1.98;1.50;;;;;;;0.08;80.58;95704.84;6271588;28;20417;-73
2023/12/02 06:37:19;;;;;;;;;;;;;;;0.03;80.52;95706.78;6271772;28;20048;-73
2023/12/02 06:40:25;;;;;;;2.10;1.67;;;;;;;-0.06;80.70;95697.66;6272384;28;19920;-74
2023/12/02 06:43:27;;;;;;;2.20;1.50;;;;;;;0.12;80.20;95693.50;6271025;28;20049;-74
2023/12/02 06:46:31;;;;;;;2.70;1.40;;;;;;;-0.09;80.82;95667.59;6271314;28;20041;-74
2023/12/02 06:49:32;;;;;;;1.75;1.05;;;;;;;-0.02;80.96;95658.69;6272115;28;20418;-74
2023/12/02 06:52:37;;;;;;;0.95;0.80;;;;;;;0.16;80.59;95651.06;6270939;28;20052;-74
2023/12/02 06:55:44;;;;;;;3.28;1.85;;;;;;;0.08;81.00;95637.59;6271697;28;20530;-74
2023/12/02 06:58:46;;;;;;;2.90;1.67;;;;;;;-0.09;81.96;95626.25;6270921;28;20122;-74
2023/12/02 07:01:50;;;;;;;0.70;0.70;;;;;;;0.02;81.69;95617.19;6271834;28;20098;-74
2023/12/02 07:04:54;;;;;;;0.70;0.70;;;;;;;0.23;81.07;95585.22;6271531;28;20052;-74
2023/12/02 07:08:01;;;;;;;2.05;1.17;;;;;;;0.11;80.52;95584.00;6271629;28;20499;-74
2023/12/02 07:11:05;;;;;;;1.25;0.63;;;;;;;0.22;80.88;95573.16;6271818;28;20045;-74
2023/12/02 07:14:07;;;;;;;0.73;0.73;;;;;;;0.14;81.22;95554.56;6270596;28;20045;-74
2023/12/02 07:17:11;;;;;;;0.68;0.68;;;;;;;0.31;80.56;95541.75;6253402;28;20130;-74
2023/12/02 07:20:14;;;;;;;1.33;0.90;;;;;;;-0.05;81.34;95532.13;6271340;28;20082;-74
2023/12/02 07:23:18;;;;;;;2.28;1.42;;;;;;;0.21;81.46;95532.69;6271184;28;20037;-73
2023/12/02 07:26:20;;;;;;;1.30;1.20;;;;;;;0.21;80.82;95514.59;6271537;28;20049;-73
2023/12/02 07:29:23;;;;;;;1.33;0.77;;;;;;;0.25;81.08;95505.78;6271251;28;20052;-73
2023/12/02 07:32:28;;;;;;;1.13;1.02;;;;;;;0.22;81.17;95490.41;6270415;28;20041;-72
2023/12/02 07:35:30;;;;;;;0.75;0.75;;;;;;;0.42;80.86;95490.28;6270250;28;20052;-73
2023/12/02 07:38:32;;;;;;;1.08;0.98;;;;;;;0.03;81.77;95479.22;6270393;28;20056;-73
2023/12/02 07:41:37;;;;;;;1.40;0.60;;;;;;;0.32;81.37;95454.59;6269627;28;20057;-72
2023/12/02 07:44:45;;;;;;;1.48;1.20;;;;;;;0.16;81.26;95455.31;6270836;28;20044;-73
2023/12/02 07:47:54;;;;;;;2.25;1.70;;;;;;;0.03;82.30;95427.50;6270635;28;20044;-72
2023/12/02 07:50:56;;;;;;;1.23;0.88;;;;;;;0.11;81.64;95409.88;6269956;28;20044;-72
2023/12/02 07:54:01;;;;;;;1.33;1.10;;;;;;;0.04;82.62;95404.16;6283462;28;20130;-72
2023/12/02 07:57:06;;;;;;;0.65;0.43;;;;;;;0.24;82.17;95395.44;6292868;28;20048;-72
2023/12/02 08:00:11;;;;;;;1.80;1.30;;;;;;;0.13;82.70;95392.53;6294954;28;20044;-72
2023/12/02 08:03:15;;;;;;;1.13;1.02;;;;;;;0.22;82.91;95377.41;6294682;28;20056;-73
2023/12/02 08:06:22;;;;;;;1.25;0.80;;;;;;;0.24;82.78;95369.59;6293893;28;20040;-72
2023/12/02 08:09:26;;;;;;;1.60;0.90;;;;;;;0.32;82.77;95346.78;6295197;28;20037;-72
2023/12/02 08:12:30;;;;;;;1.88;1.30;;;;;;;0.12;83.11;95339.16;6295039;28;20045;-71
2023/12/02 08:15:35;;;;;;;2.13;1.30;;;;;;;0.11;83.26;95311.59;6294491;28;20060;-72
2023/12/02 08:18:39;;;;;;;1.10;0.95;;;;;;;0.16;82.88;95307.03;6295077;28;20055;-73
2023/12/02 08:21:46;;;;;;;1.90;0.95;;;;;;;0.19;83.30;95291.38;6294848;28;20046;-72
2023/12/02 08:24:53;;;;;;;1.73;0.93;;;;;;;0.18;83.66;95275.00;6294926;28;20555;-72
2023/12/02 08:28:00;;;;;;;1.45;1.20;;;;;;;0.27;83.32;95276.31;6294652;28;20036;-72
2023/12/02 08:31:04;;;;;;;2.05;1.40;;;;;;;0.12;83.50;95266.72;6293992;28;20058;-71
2023/12/02 08:34:08;;;;;;;1.00;0.93;;;;;;;0.21;83.36;95230.88;6294153;28;20414;-71
2023/12/02 08:37:14;;;;;;;1.13;0.93;;;;;;;0.04;83.05;95180.94;6294137;28;20052;-72
2023/12/02 08:40:21;;;;;;;1.20;0.82;;;;;;;0.32;83.35;95212.25;6294402;28;20075;-72
2023/12/02 08:43:25;;;;;;;1.98;1.25;;;;;;;0.18;83.39;95183.66;6294219;28;20041;-71
2023/12/02 08:46:31;;;;;;;1.15;1.05;;;;;;;0.18;83.47;95170.72;6294020;28;20036;-71
2023/12/02 08:49:35;;;;;;;1.70;1.20;;;;;;;0.12;83.29;95116.72;6293917;28;20044;-72
2023/12/02 08:52:39;;;;;;;1.95;0.60;;;;;;;0.31;83.83;95152.81;6285477;28;20211;-71
2023/12/02 08:55:44;;;;;;;2.15;1.30;;;;;;;0.17;83.59;95169.03;6268777;28;20053;-72
2023/12/02 08:58:48;;;;;;;1.40;1.20;;;;;;;0.31;84.26;95160.56;6269431;28;20053;-73
2023/12/02 09:01:56;;;;;;;1.38;1.13;;;;;;;0.15;84.43;95135.50;6269135;28;20049;-71
2023/12/02 09:05:05;;;;;;;1.38;1.00;;;;;;;0.21;84.14;95136.94;6268597;28;20110;-72
2023/12/02 09:08:09;;;;;;;1.63;1.08;;;;;;;0.27;84.29;95136.63;6268977;28;20120;-71
2023/12/02 09:11:11;;;;;;;0.60;0.55;;;;;;;0.27;84.33;95126.25;6268000;28;20072;-71
2023/12/02 09:14:14;;;;;;;2.08;1.23;;;;;;;0.20;84.93;95127.53;6267636;28;20052;-71
2023/12/02 09:17:55;;;;;;;1.77;1.30;;;;;;;0.20;84.72;95119.75;6268762;28;20037;-71
2023/12/02 09:21:01;;;;;;;2.58;1.48;;;;;;;0.10;85.19;95113.38;6268524;28;20055;-71
2023/12/02 09:24:25;;;;;;;1.42;1.10;;;;;;;0.17;85.28;95106.97;6267855;28;20053;-71
2023/12/02 09:27:59;;;;;;;0.93;0.75;;;;;;;0.31;85.18;95117.44;6268431;28;20056;-70
2023/12/02 09:31:06;;;;;;;1.88;1.50;;;;;;;0.25;84.65;95102.22;6269056;28;20056;-70
2023/12/02 09:34:47;;;;;;;0.95;0.80;;;;;;;0.32;84.53;95107.94;6268105;28;20052;-69
2023/12/02 09:37:51;;;;;;;1.02;0.60;;;;;;;0.11;85.50;95082.25;6268062;28;20041;-70
2023/12/02 09:41:14;;;;;;;1.60;1.48;;;;;;;0.07;85.72;95072.16;6268178;28;20056;-69
2023/12/02 09:44:39;;;;;;;3.55;2.20;;;;;;;0.15;85.85;95054.50;6267737;28;20056;-70
2023/12/02 09:47:48;;;;;;;1.38;0.95;;;;;;;0.13;86.03;95045.97;6272338;28;20434;-70
2023/12/02 09:51:05;;;;;;;1.50;1.13;;;;;;;0.07;85.74;95051.47;6273353;28;20048;-70
2023/12/02 09:54:49;;;;;;;1.95;0.90;;;;;;;0.19;85.91;95032.72;6272624;28;20210;-70
2023/12/02 09:58:16;;;;;;;1.13;1.03;;;;;;;0.10;86.32;95025.47;6255409;28;20055;-70
2023/12/02 10:01:55;;;;;;;1.95;1.45;;;;;;;0.26;85.80;95010.78;6272725;28;20522;-71
2023/12/02 10:05:13;;;;;;;2.67;1.60;;;;;;;0.01;85.91;94989.75;6272753;28;20053;-71
2023/12/02 10:08:35;;;;;;;3.35;2.17;;;;;;;0.06;86.11;94998.06;6271259;28;20045;-70
2023/12/02 10:12:00;;;;;;;1.83;1.00;;;;;;;0.14;85.96;94986.44;6272477;28;20056;-69
2023/12/02 10:15:05;;;;;;;2.65;1.25;;;;;;;0.12;85.84;94988.25;6271537;28;20056;-70
2023/12/02 10:18:13;;;;;;;4.00;2.17;;;;;;;-0.02;85.91;94965.72;6255852;28;20080;-69
2023/12/02 10:21:19;;;;;;;2.67;1.45;;;;;;;0.11;86.30;94954.69;6272153;28;20057;-69
2023/12/02 10:24:45;;;;;;;2.78;1.77;;;;;;;0.06;86.21;94948.94;6272955;28;20052;-70
2023/12/02 10:28:04;;;;;;;2.95;1.95;;;;;;;-0.03;86.44;94948.56;6272870;28;20133;-69
2023/12/02 10:31:22;;;;;;;3.75;1.67;;;;;;;0.04;87.08;94943.03;6271999;28;20507;-69
2023/12/02 10:34:33;;;;;;;1.45;0.93;;;;;;;0.35;86.36;94932.66;6272346;28;20426;-69
2023/12/02 10:37:39;;;;;;;4.60;2.00;;;;;;;0.24;85.75;94924.66;6271819;28;20052;-69
2023/12/02 10:40:51;;;;;;;3.75;1.63;;;;;;;0.16;86.11;94903.56;6271652;28;20115;-69
2023/12/02 10:44:02;;;;;;;2.67;1.70;;;;;;;0.22;86.03;94900.63;6272215;28;20674;-68
2023/12/02 10:47:07;;;;;;;1.35;1.02;;;;;;;0.50;85.69;94893.91;6272236;28;20052;-69
2023/12/02 10:50:17;;;;;;;1.70;0.93;;;;;;;0.58;84.91;94902.06;6272342;28;20040;-68
2023/12/02 10:53:23;;;;;;;2.53;0.82;;;;;;;0.49;85.33;94900.03;6271046;28;20498;-69
2023/12/02 10:56:33;;;;;;;1.75;1.02;;;;;;;0.41;85.47;94884.94;6270907;28;20053;-68
2023/12/02 11:00:12;;;;;;;0.55;0.55;;;;;;;0.39;85.40;94903.09;6270770;28;20077;-69
2023/12/02 11:04:02;;;;;;;1.20;0.65;;;;;;;0.50;85.26;94889.56;6272239;28;20514;-70
2023/12/02 11:07:07;;;;;;;0.63;0.32;;;;;;;0.47;85.10;94889.75;6251824;28;20620;-70
2023/12/02 11:10:19;;;;;;;0.25;0.25;;;;;;;0.50;85.78;94888.75;6271854;28;20052;-69
2023/12/02 11:13:23;;;;;;;1.38;0.82;;;;;;;0.33;85.87;94893.13;6271482;28;20033;-69
2023/12/02 11:16:41;;;;;;;0.60;0.50;;;;;;;0.36;86.10;94877.41;6271472;28;20037;-68
2023/12/02 11:20:05;;;;;;;0.93;0.65;;;;;;;0.40;85.91;94878.94;6270518;28;20179;-69
2023/12/02 11:23:35;;;;;;;0.60;0.50;;;;;;;0.41;85.42;94865.06;6271204;28;20494;-69
2023/12/02 11:26:51;;;;;;;1.77;0.70;;;;;;;0.37;85.61;94857.56;6270572;28;20049;-69
2023/12/02 11:30:05;;;;;;;0.88;0.70;;;;;;;0.29;85.55;94860.59;6270976;28;20140;-69
2023/12/02 11:33:34;;;;;;;0.30;0.30;;;;;;;0.14;86.14;94851.94;6270388;28;20052;-68
2023/12/02 11:36:38;;;;;;;1.15;0.70;;;;;;;0.10;85.82;94849.59;6270653;28;20052;-69
2023/12/02 11:39:52;;;;;;;1.55;0.70;;;;;;;0.12;85.84;94848.59;6252998;28;20347;-69
2023/12/02 11:43:19;;;;;;;0.25;0.20;;;;;;;0.22;86.02;94843.72;6253503;28;20518;-69
2023/12/02 11:46:41;;;;;;;0.60;0.57;;;;;;;0.16;85.25;94839.75;6270858;28;20374;-71
2023/12/02 11:50:15;;;;;;;0.50;0.50;;;;;;;0.08;85.62;94836.75;6269927;28;20045;-69
2023/12/02 11:53:32;;;;;;;1.45;0.80;;;;;;;0.04;85.72;94824.09;6270343;28;20453;-71
2023/12/02 11:56:34;;;;;;;1.77;0.98;;;;;;;0.01;85.61;94814.75;6293138;28;20053;-70
2023/12/02 11:59:55;;;;;;;1.25;1.15;;;;;;;0.03;85.58;94818.09;6295221;28;20063;-70
2023/12/02 12:03:37;;;;;;;2.60;0.85;;;;;;;0.05;85.53;94800.72;6295213;28;20385;-69
2023/12/02 12:07:06;;;;;;;3.10;1.33;;;;;;;0.06;85.20;94806.72;6295315;28;20036;-72
2023/12/02 12:10:33;;;;;;;3.38;1.88;;;;;;;-0.07;85.42;94802.25;6269067;28;20037;-70
2023/12/02 12:13:38;;;;;;;4.97;2.67;;;;;;;-0.09;85.09;94793.75;6269803;28;20158;-71
2023/12/02 12:16:41;;;;;;;8.73;3.65;;;;;;;-0.14;85.11;94810.44;6269245;28;20182;-72
2023/12/02 12:19:51;;;;;;;8.00;3.00;;;;;;;-0.13;85.63;94815.53;6269987;28;20032;-70
2023/12/02 12:22:59;;;;;;;4.35;2.03;;;;;;;-0.19;85.00;94813.28;6269918;28;20036;-71
2023/12/02 12:26:03;;;;;;;2.85;1.92;;;;;;;-0.20;85.09;94796.09;6269312;28;20048;-71
2023/12/02 12:29:08;;;;;;;1.17;1.02;;;;;;;-0.19;85.03;94790.03;6270097;28;20047;-71
2023/12/02 12:32:12;;;;;;;1.23;0.82;;;;;;;-0.26;84.91;94796.44;6269587;28;20053;-73
2023/12/02 12:35:17;;;;;;;1.17;0.85;;;;;;;-0.34;85.34;94783.13;6269368;28;20045;-72
2023/12/02 12:38:27;;;;;;;0.93;0.47;;;;;;;-0.36;84.93;94774.63;6269712;28;20041;-72
2023/12/02 12:41:47;;;;;;;0.60;0.50;;;;;;;-0.28;84.94;94780.22;6269616;28;20155;-72
2023/12/02 12:45:03;;;;;;;1.20;0.80;;;;;;;-0.35;85.05;94776.28;6269501;28;20041;-72
2023/12/02 12:48:09;;;;;;;3.35;0.88;;;;;;;-0.40;84.84;94779.13;6269645;28;20044;-73
2023/12/02 12:51:15;;;;;;;1.65;0.90;;;;;;;-0.39;85.07;94779.97;6269344;28;20041;-72
2023/12/02 12:54:27;;;;;;;2.63;0.90;;;;;;;-0.35;84.55;94781.47;6247130;28;20061;-74
2023/12/02 12:58:04;;;;;;;0.32;0.30;;;;;;;-0.28;84.88;94781.03;6244593;28;20037;-74
2023/12/02 13:01:09;;;;;;;0.45;0.28;;;;;;;-0.33;84.57;94774.47;6243635;28;20147;-74
2023/12/02 13:04:31;;;;;;;0.88;0.88;;;;;;;-0.30;84.91;94784.63;6244014;28;20522;-74
2023/12/02 13:07:54;;;;;;;1.15;0.80;;;;;;;-0.27;84.53;94774.94;6244316;28;20041;-74
2023/12/02 13:10:59;;;;;;;2.83;1.30;;;;;;;-0.33;84.27;94766.72;6243664;28;20429;-74
2023/12/02 13:14:10;;;;;;;2.38;1.63;;;;;;;-0.29;84.08;94775.94;6244209;28;20038;-73
2023/12/02 13:17:20;;;;;;;5.72;1.63;;;;;;;-0.34;83.76;94752.09;6244168;28;20041;-73
2023/12/02 13:20:29;;;;;;;1.70;1.10;;;;;;;-0.31;84.31;94763.13;6243962;28;20053;-74
2023/12/02 13:23:32;;;;;;;1.55;1.17;;;;;;;-0.41;84.97;94764.53;6248771;28;20171;-74
2023/12/02 13:26:39;;;;;;;3.53;1.50;;;;;;;-0.39;84.97;94760.13;6247415;28;20049;-74
2023/12/02 13:29:45;;;;;;;1.00;0.70;;;;;;;-0.28;85.33;94754.38;6248952;28;20076;-74
2023/12/02 13:32:52;;;;;;;1.25;0.90;;;;;;;-0.17;84.86;94770.09;6231094;28;20549;-75
2023/12/02 13:36:12;;;;;;;1.23;0.80;;;;;;;-0.25;84.60;94756.78;6248007;28;20057;-74
2023/12/02 13:39:21;;;;;;;0.95;0.80;;;;;;;-0.15;85.17;94763.09;6248197;28;20534;-74
2023/12/02 13:42:30;;;;;;;1.20;0.80;;;;;;;-0.06;84.54;94749.66;6248327;28;20394;-74
2023/12/02 13:45:38;;;;;;;4.13;1.75;;;;;;;-0.19;84.97;94771.94;6248923;28;20046;-74
2023/12/02 13:49:10;;;;;;;1.52;0.90;;;;;;;-0.08;84.50;94764.41;6248798;28;20045;-75
2023/12/02 13:52:36;;;;;;;1.80;0.85;;;;;;;-0.12;83.58;94778.41;6248315;28;20049;-74
2023/12/02 13:56:02;;;;;;;1.10;0.82;;;;;;;-0.11;83.09;94790.44;6248322;28;20052;-74
2023/12/02 13:59:19;;;;;;;1.38;1.17;;;;;;;-0.14;83.13;94764.75;6248140;28;20502;-74
2023/12/02 14:02:41;;;;;;;0.98;0.93;;;;;;;-0.05;82.15;94760.81;6248417;28;20045;-74
2023/12/02 14:06:20;;;;;;;0.95;0.68;;;;;;;-0.11;82.03;94759.41;6248326;28;20046;-74
2023/12/02 14:09:24;;;;;;;0.95;0.80;;;;;;;-0.11;82.13;94758.59;6217637;28;20052;-74
2023/12/02 14:12:47;;;;;;;1.23;0.73;;;;;;;-0.09;81.97;94751.56;6230243;28;20542;-73
2023/12/02 14:15:54;;;;;;;0.98;0.98;;;;;;;-0.14;81.27;94746.66;6230698;28;20049;-74
2023/12/02 14:19:29;;;;;;;1.60;0.90;;;;;;;-0.27;81.77;94764.59;6247003;28;20510;-74
2023/12/02 14:23:16;;;;;;;1.20;0.80;;;;;;;0.01;81.26;94757.06;6247598;28;20422;-75
2023/12/02 14:26:24;;;;;;;1.05;0.80;;;;;;;0.15;80.85;94755.34;6234000;28;20475;-73
2023/12/02 14:29:46;;;;;;;0.75;0.75;;;;;;;0.11;81.18;94753.00;6247851;28;20041;-73
2023/12/02 14:33:11;;;;;;;2.70;1.25;;;;;;;0.04;81.40;94762.88;6246419;28;20049;-74
2023/12/02 14:36:47;;;;;;;1.00;0.85;;;;;;;0.18;81.08;94772.44;6247584;28;20048;-74
2023/12/02 14:40:13;;;;;;;0.90;0.80;;;;;;;0.12;80.17;94760.69;6247496;28;20503;-73
2023/12/02 14:43:30;;;;;;;1.13;0.90;;;;;;;0.09;79.99;94762.63;6247592;28;20116;-73
2023/12/02 14:46:32;;;;;;;0.80;0.80;;;;;;;-0.06;80.68;94767.75;6246424;28;20056;-74
2023/12/02 14:49:41;;;;;;;0.70;0.50;;;;;;;-0.10;80.49;94780.94;6247395;28;20050;-73